Terminal Aerodrome Forecast
Issued by NWS Amarillo, TX

Home | Current Version | Previous Version | Text Only | Print | Product List | Glossary On
Versions: 1 2 3 4 5 6 7 8 9 10 11 12 13
000
FTUS44 KAMA 031134
TAFAMA
TAF
KAMA 031134Z 0312/0412 21013KT P6SM SCT150
     FM031500 20017G26KT P6SM SCT100 BKN250
     FM040200 17013KT P6SM SCT150=

USA.gov is the U.S. government's official web portal to all federal, state and local government web resources and services.